Airfield :
LOGIN :

Register | Disclaimer

   EN    FR    IT 

 










Legend :    VFR   Marginal VFR   IFR   Intensive IFR   Very Intensive IFR
Visi :
Ceiling :
>= 8 km
>= 3000ft
5 to 8 km
1000 to 3000 ft
1500m to 5 km
500 to 1000 ft
800 to 1500m
200 to 500 ft
< 800m
< 200 ft
Symbols :   Thunderstorms  Fog  Heavy snow  Heavy precipitations  Wind > 20 kt
SIGMETs :     Misc.  Thunderstorms  Icing  Turbulence  Mountain Waves  Volcanic Ashes






- Airport Elevation : 650 ft
- IATA code : ZJI


LSZL - Locarno

CURRENT METAR :
  • 021250Z VRB02KT 9999 SCT030 BKN049 08/03 Q1017 RMK BLU

EXPIRED METARs :
  • 021220Z VRB02KT 9999 SCT039 BKN054 08/03 Q1018 RMK BLU
  • 021150Z VRB02KT 9999 SCT040 BKN055 08/03 Q1018 RMK BLU
  • 021120Z AUTO VRB01KT 9999NDV FEW055 BKN095 08/03 Q1018 RMK
  • 021020Z 00000KT 9999 SCT040 BKN055 07/02 Q1018 RMK BLU

TAF TAF LSZL
Valid from the 02 at 12:00 until the 02 at 21:00 UTC


021125Z 0212/0221 VRB02KT 9999 SCT040 BKN055
PROB30
TEMPO 0215/0221 4000 -RA



MET'MAP, your aeronautical weather chart ! - Copyright ORBIFLY December 2007 - Disclaimer

ORBIFLY MET'MAP TEAM :

Programming & Development : Alexandra Zaïnal
Original concept : Baudouin d'Aumeries
Technical & hardware support : Manuel Goepfert
Assistance : Marc-Olivier Méhu




SOURCES & CREDITS :

   NOAA